Time;durP1;ratioP1;P1;durP2;ratioP2;P2;SDS_P1;SDS_P2;PMS_P1;PMS_P2;Temp;Humidity;BMP_temperature;BMP_pressure;BME280_temperature;BME280_humidity;BME280_pressure;Samples;Min_cycle;Max_cycle;Signal;HPM_P1;HPM_P2
2021/08/19 00:01:36;;;;;;;8.73;4.15;;;;;;;15.32;80.27;100258.41;5112652;28;20043;-71
2021/08/19 00:04:05;;;;;;;8.40;4.20;;;;;;;15.32;80.75;100258.41;5112942;28;20097;-71
2021/08/19 00:06:33;;;;;;;7.15;4.20;;;;;;;15.29;80.85;100261.34;5116337;28;20048;-71
2021/08/19 00:09:07;;;;;;;9.10;4.30;;;;;;;15.22;82.24;100249.38;5116578;28;20092;-71
2021/08/19 00:11:36;;;;;;;7.03;3.97;;;;;;;15.21;82.24;100250.34;5097915;28;20047;-71
2021/08/19 00:14:04;;;;;;;8.65;4.10;;;;;;;15.21;82.15;100261.09;5116135;28;20066;-71
2021/08/19 00:16:32;;;;;;;8.88;4.25;;;;;;;15.25;81.41;100262.59;5115944;28;20126;-72
2021/08/19 00:19:02;;;;;;;16.35;5.95;;;;;;;15.26;82.02;100260.75;5116157;28;20039;-70
2021/08/19 00:21:32;;;;;;;9.95;4.45;;;;;;;15.28;80.92;100258.78;5115908;28;20062;-71
2021/08/19 00:24:01;;;;;;;7.10;4.22;;;;;;;15.46;77.72;100252.78;5116116;28;20031;-71
2021/08/19 00:26:29;;;;;;;9.52;4.30;;;;;;;15.52;77.36;100253.25;5115787;28;20373;-71
2021/08/19 00:28:57;;;;;;;9.70;4.35;;;;;;;15.69;75.95;100250.09;5115832;28;20377;-71
2021/08/19 00:31:25;;;;;;;10.35;4.90;;;;;;;15.77;77.65;100253.03;5115325;28;20050;-71
2021/08/19 00:33:54;;;;;;;7.80;4.10;;;;;;;15.62;78.81;100254.25;5116090;28;20043;-71
2021/08/19 00:36:24;;;;;;;8.23;4.30;;;;;;;15.67;77.41;100244.00;5115466;28;20092;-70
2021/08/19 00:38:52;;;;;;;10.10;4.15;;;;;;;15.60;77.96;100246.31;5115507;28;20453;-70
2021/08/19 00:41:22;;;;;;;9.07;4.63;;;;;;;15.38;80.26;100246.31;5115157;28;20047;-70
2021/08/19 00:43:50;;;;;;;7.82;4.57;;;;;;;15.24;81.11;100252.78;5115857;28;20130;-70
2021/08/19 00:46:30;;;;;;;8.35;4.65;;;;;;;15.24;81.36;100244.72;5115228;28;20040;-70
2021/08/19 00:49:00;;;;;;;10.00;4.70;;;;;;;15.17;83.39;100254.28;5115649;28;20043;-69
2021/08/19 00:51:35;;;;;;;8.25;4.25;;;;;;;15.17;83.74;100251.59;5115173;28;20089;-71
2021/08/19 00:54:07;;;;;;;8.35;4.10;;;;;;;15.19;84.04;100249.63;5115617;28;20048;-70
2021/08/19 00:56:36;;;;;;;7.38;4.40;;;;;;;15.15;83.75;100250.81;5115204;28;20054;-71
2021/08/19 00:59:06;;;;;;;9.30;5.10;;;;;;;15.01;83.51;100251.06;5115509;28;20077;-71
2021/08/19 01:01:35;;;;;;;8.35;5.00;;;;;;;15.06;83.73;100256.94;5114948;28;20049;-71
2021/08/19 01:04:05;;;;;;;8.70;4.82;;;;;;;14.99;83.28;100258.41;5115351;28;20050;-71
2021/08/19 01:06:35;;;;;;;9.70;5.47;;;;;;;14.95;82.95;100254.22;5115027;28;20405;-70
2021/08/19 01:09:04;;;;;;;8.55;5.07;;;;;;;14.92;83.49;100257.16;5115140;28;20039;-70
2021/08/19 01:11:33;;;;;;;10.15;5.20;;;;;;;14.91;84.44;100252.78;5114944;28;20915;-70
2021/08/19 01:14:03;;;;;;;8.88;4.75;;;;;;;14.89;85.39;100251.06;5115034;28;20043;-70
2021/08/19 01:16:32;;;;;;;7.75;4.70;;;;;;;14.94;84.77;100260.56;5114356;28;20051;-73
2021/08/19 01:19:00;;;;;;;8.75;4.28;;;;;;;15.09;83.77;100260.25;5114878;28;20066;-73
2021/08/19 01:21:28;;;;;;;8.20;4.53;;;;;;;14.99;83.88;100261.09;5114537;28;20048;-73
2021/08/19 01:23:59;;;;;;;9.63;4.70;;;;;;;14.87;86.50;100254.84;5114913;28;20088;-72
2021/08/19 01:26:28;;;;;;;7.95;4.43;;;;;;;14.76;89.08;100255.66;5114759;28;20035;-72
2021/08/19 01:28:59;;;;;;;8.68;4.60;;;;;;;14.68;89.24;100252.72;5114736;28;20071;-72
2021/08/19 01:31:27;;;;;;;12.02;4.80;;;;;;;14.65;89.17;100252.09;5114123;28;20097;-71
2021/08/19 01:33:56;;;;;;;7.88;4.70;;;;;;;14.60;89.75;100247.09;5114507;28;20086;-71
2021/08/19 01:36:24;;;;;;;8.80;4.88;;;;;;;14.56;91.08;100248.28;5114264;28;20040;-71
2021/08/19 01:38:53;;;;;;;8.73;4.72;;;;;;;14.49;92.82;100247.06;5114614;28;20063;-71
2021/08/19 01:41:22;;;;;;;9.77;4.63;;;;;;;14.51;93.55;100245.97;5114348;28;20612;-71
2021/08/19 01:43:51;;;;;;;8.48;4.72;;;;;;;14.46;93.96;100241.91;5114455;28;20044;-71
2021/08/19 01:46:21;;;;;;;9.45;4.65;;;;;;;14.44;94.04;100241.16;5114006;28;20043;-72
2021/08/19 01:48:51;;;;;;;10.10;4.60;;;;;;;14.40;94.66;100245.06;5114489;28;20040;-71
2021/08/19 01:51:20;;;;;;;8.02;4.38;;;;;;;14.40;94.64;100247.72;5114092;28;20419;-71
2021/08/19 01:53:48;;;;;;;8.68;4.88;;;;;;;14.39;94.94;100252.25;5114182;28;20046;-71
2021/08/19 01:56:18;;;;;;;8.65;4.63;;;;;;;14.32;95.50;100254.53;5113854;28;20071;-71
2021/08/19 01:58:46;;;;;;;8.65;4.50;;;;;;;14.32;95.02;100251.84;5114586;28;20035;-71
2021/08/19 02:01:19;;;;;;;9.88;4.85;;;;;;;14.25;95.52;100255.97;5113975;28;20477;-72
2021/08/19 02:03:48;;;;;;;9.50;4.47;;;;;;;14.21;95.43;100262.53;5114352;28;20404;-71
2021/08/19 02:06:17;;;;;;;8.73;4.40;;;;;;;14.20;95.23;100262.66;5113820;28;20040;-71
2021/08/19 02:08:45;;;;;;;9.23;5.13;;;;;;;14.21;95.59;100259.84;5095912;28;20052;-71
2021/08/19 02:11:14;;;;;;;8.65;4.90;;;;;;;14.23;94.94;100265.09;5114004;28;20047;-71
2021/08/19 02:13:43;;;;;;;9.60;5.10;;;;;;;14.23;95.29;100263.28;5113900;28;20039;-71
2021/08/19 02:16:11;;;;;;;12.23;5.03;;;;;;;14.25;94.65;100258.63;5113846;28;20070;-70
2021/08/19 02:18:41;;;;;;;10.43;5.22;;;;;;;14.26;95.06;100268.41;5113611;28;20385;-70
2021/08/19 02:21:10;;;;;;;8.25;4.82;;;;;;;14.24;95.21;100264.13;5113677;28;20067;-70
2021/08/19 02:23:38;;;;;;;13.88;5.68;;;;;;;14.26;94.49;100257.66;5113598;28;20071;-72
2021/08/19 02:26:06;;;;;;;11.00;5.65;;;;;;;14.32;93.21;100259.03;5113975;28;20039;-72
2021/08/19 02:28:35;;;;;;;12.30;5.70;;;;;;;14.21;93.12;100262.53;5112945;28;20047;-72
2021/08/19 02:31:03;;;;;;;11.57;5.22;;;;;;;14.19;94.21;100264.47;5113601;28;20549;-72
2021/08/19 02:33:31;;;;;;;9.15;5.22;;;;;;;14.14;94.48;100266.63;5113154;28;20047;-72
2021/08/19 02:36:03;;;;;;;15.20;6.10;;;;;;;14.17;94.24;100266.41;5113622;28;20134;-71
2021/08/19 02:38:31;;;;;;;10.35;5.00;;;;;;;14.16;94.04;100262.00;5113275;28;20134;-72
2021/08/19 02:40:59;;;;;;;11.07;5.65;;;;;;;14.21;93.32;100259.00;5113769;28;20109;-71
2021/08/19 02:43:28;;;;;;;14.90;5.78;;;;;;;14.22;93.76;100256.19;5113324;28;20455;-72
2021/08/19 02:45:56;;;;;;;12.20;5.47;;;;;;;14.20;93.69;100260.81;5113419;28;20046;-71
2021/08/19 02:48:24;;;;;;;10.15;5.10;;;;;;;14.28;93.17;100254.88;5112943;28;20052;-71
2021/08/19 02:50:53;;;;;;;13.68;5.63;;;;;;;14.26;93.17;100252.28;5113292;28;20108;-71
2021/08/19 02:53:22;;;;;;;10.50;5.35;;;;;;;14.30;92.73;100247.56;5112899;28;20047;-71
2021/08/19 02:55:50;;;;;;;11.45;5.20;;;;;;;14.36;92.70;100251.59;5113425;28;20039;-71
2021/08/19 02:58:19;;;;;;;12.23;5.38;;;;;;;14.39;92.83;100251.41;5113373;28;20039;-73
2021/08/19 03:00:47;;;;;;;9.30;5.20;;;;;;;14.38;92.49;100257.69;5113097;28;20048;-71
2021/08/19 03:03:15;;;;;;;10.30;5.70;;;;;;;14.40;91.98;100256.63;5113558;28;20044;-70
2021/08/19 03:05:44;;;;;;;10.07;5.10;;;;;;;14.43;92.39;100247.50;5112996;28;20365;-70
2021/08/19 03:08:12;;;;;;;11.43;5.55;;;;;;;14.52;92.88;100252.19;5113154;28;20048;-70
2021/08/19 03:10:41;;;;;;;11.93;5.07;;;;;;;14.51;92.86;100251.34;5113041;28;20040;-70
2021/08/19 03:13:09;;;;;;;9.27;4.97;;;;;;;14.68;91.18;100252.72;5112976;28;20062;-71
2021/08/19 03:15:38;;;;;;;8.95;4.80;;;;;;;14.65;91.29;100250.25;5112716;28;20123;-71
2021/08/19 03:18:06;;;;;;;11.02;5.30;;;;;;;14.56;92.00;100254.50;5113257;28;20067;-71
2021/08/19 03:20:37;;;;;;;12.77;5.85;;;;;;;14.50;92.72;100254.16;5112947;28;20481;-71
2021/08/19 03:23:06;;;;;;;12.18;5.25;;;;;;;14.54;91.52;100251.09;5113208;28;20450;-69
2021/08/19 03:25:34;;;;;;;11.63;4.85;;;;;;;14.50;90.88;100248.78;5112654;28;20105;-70
2021/08/19 03:28:07;;;;;;;12.02;5.65;;;;;;;14.50;90.66;100246.09;5112975;28;20094;-70
2021/08/19 03:30:36;;;;;;;;;;;;;;;14.49;90.03;100253.28;5113478;28;20361;-70
2021/08/19 03:33:05;;;;;;;8.80;4.57;;;;;;;14.51;89.74;100254.03;5112852;28;19920;-70
2021/08/19 03:35:34;;;;;;;12.75;5.57;;;;;;;14.47;90.29;100249.84;5112720;28;20040;-70
2021/08/19 03:38:02;;;;;;;12.50;5.72;;;;;;;14.47;90.38;100254.34;5112865;28;20044;-70
2021/08/19 03:40:30;;;;;;;16.48;5.72;;;;;;;14.36;90.91;100251.59;5116118;28;20047;-70
2021/08/19 03:42:58;;;;;;;10.05;5.07;;;;;;;14.27;91.01;100261.19;5117111;28;20442;-70
2021/08/19 03:45:28;;;;;;;10.18;5.63;;;;;;;14.25;91.00;100250.59;5116685;28;20043;-70
2021/08/19 03:47:57;;;;;;;11.38;5.47;;;;;;;14.30;91.04;100251.13;5117433;28;20048;-70
2021/08/19 03:50:25;;;;;;;11.13;5.88;;;;;;;14.26;92.22;100252.28;5116326;28;20044;-72
2021/08/19 03:52:55;;;;;;;10.90;5.53;;;;;;;14.45;90.64;100250.94;5116626;28;20040;-71
2021/08/19 03:55:24;;;;;;;9.20;5.38;;;;;;;14.37;91.07;100251.47;5116412;28;20373;-72
2021/08/19 03:57:52;;;;;;;8.50;5.32;;;;;;;14.29;91.55;100245.88;5116842;28;20432;-72
2021/08/19 04:00:23;;;;;;;9.45;5.20;;;;;;;14.32;91.47;100251.00;5116577;28;20127;-71
2021/08/19 04:02:53;;;;;;;14.13;5.78;;;;;;;14.16;92.73;100258.47;5116787;28;20053;-71
2021/08/19 04:05:22;;;;;;;14.57;6.20;;;;;;;14.09;93.14;100258.09;5116448;28;20039;-71
2021/08/19 04:07:50;;;;;;;11.63;5.35;;;;;;;14.05;93.74;100259.28;5116156;28;20507;-71
2021/08/19 04:10:20;;;;;;;14.32;6.10;;;;;;;14.03;93.99;100255.88;5116322;28;20388;-70
2021/08/19 04:12:48;;;;;;;11.35;6.22;;;;;;;14.11;93.84;100252.63;5116159;28;20046;-70
2021/08/19 04:15:17;;;;;;;15.10;5.93;;;;;;;14.16;93.52;100251.28;5116045;28;20476;-73
2021/08/19 04:17:45;;;;;;;13.07;6.13;;;;;;;14.20;93.61;100257.28;5115789;28;20093;-72
2021/08/19 04:20:14;;;;;;;13.25;6.00;;;;;;;14.24;93.47;100264.97;5115983;28;20054;-71
2021/08/19 04:22:43;;;;;;;12.35;6.10;;;;;;;14.29;93.45;100256.59;5115854;28;20472;-72
2021/08/19 04:25:12;;;;;;;17.13;6.97;;;;;;;14.36;93.15;100256.97;5116069;28;20104;-71
2021/08/19 04:27:41;;;;;;;16.33;6.22;;;;;;;14.97;90.25;100253.16;5115707;28;20219;-72
2021/08/19 04:30:10;;;;;;;12.38;6.13;;;;;;;15.83;84.23;100251.69;5115850;28;20048;-71
2021/08/19 04:32:38;;;;;;;12.50;5.90;;;;;;;16.57;79.68;100256.16;5115742;28;20050;-71
2021/08/19 04:35:07;;;;;;;11.98;6.47;;;;;;;17.23;76.15;100241.53;5115974;28;20404;-71
2021/08/19 04:37:37;;;;;;;9.45;5.30;;;;;;;17.68;72.56;100240.16;5115383;28;20047;-72
2021/08/19 04:40:06;;;;;;;13.68;5.35;;;;;;;17.70;72.33;100243.59;5115702;28;20051;-72
2021/08/19 04:42:35;;;;;;;10.65;5.47;;;;;;;17.81;71.87;100242.63;5097547;28;20134;-73
2021/08/19 04:45:03;;;;;;;10.98;5.88;;;;;;;17.49;72.93;100240.09;5115735;28;20100;-73
2021/08/19 04:47:32;;;;;;;12.57;6.03;;;;;;;17.00;75.68;100244.44;5115341;28;20040;-73
2021/08/19 04:50:00;;;;;;;16.60;6.20;;;;;;;16.63;77.63;100249.41;5115038;28;20066;-72
2021/08/19 04:52:28;;;;;;;9.85;4.85;;;;;;;16.43;79.15;100256.47;5115098;28;20038;-71
2021/08/19 04:54:57;;;;;;;8.70;5.25;;;;;;;16.33;79.63;100254.69;5115655;28;20044;-70
2021/08/19 04:57:26;;;;;;;10.38;5.60;;;;;;;16.27;80.44;100261.44;5115206;28;20135;-72
2021/08/19 04:59:54;;;;;;;10.32;5.78;;;;;;;16.34;80.23;100257.25;5115188;28;20476;-70
2021/08/19 05:02:22;;;;;;;11.80;5.70;;;;;;;16.45;80.34;100259.88;5115165;28;20071;-71
2021/08/19 05:04:50;;;;;;;10.93;5.82;;;;;;;16.50;80.19;100262.19;5114719;28;20101;-71
2021/08/19 05:07:19;;;;;;;13.02;6.15;;;;;;;16.65;80.19;100254.66;5115321;28;20044;-73
2021/08/19 05:09:47;;;;;;;12.57;6.60;;;;;;;16.78;79.42;100258.03;5114838;28;20150;-73
2021/08/19 05:12:16;;;;;;;9.27;5.55;;;;;;;16.84;78.85;100252.13;5115164;28;20044;-74
2021/08/19 05:14:47;;;;;;;11.20;5.65;;;;;;;16.84;78.75;100254.81;5114761;28;20446;-74
2021/08/19 05:17:15;;;;;;;9.90;5.85;;;;;;;16.84;78.83;100255.66;5115083;28;20424;-74
2021/08/19 05:19:44;;;;;;;10.60;5.82;;;;;;;17.02;78.47;100250.53;5114483;28;20447;-72
2021/08/19 05:22:12;;;;;;;10.27;5.82;;;;;;;17.18;77.42;100241.97;5114889;28;20071;-72
2021/08/19 05:24:40;;;;;;;11.82;6.68;;;;;;;17.25;77.68;100258.44;5114505;28;20146;-70
2021/08/19 05:27:08;;;;;;;10.65;5.97;;;;;;;17.35;77.26;100257.47;5114591;28;20039;-73
2021/08/19 05:29:38;;;;;;;11.38;6.20;;;;;;;17.51;76.46;100254.28;5114526;28;20035;-73
2021/08/19 05:32:07;;;;;;;14.20;7.18;;;;;;;17.56;75.82;100257.41;5114783;28;20040;-72
2021/08/19 05:34:35;;;;;;;11.23;6.78;;;;;;;17.83;75.09;100250.56;5114286;28;20032;-75
2021/08/19 05:37:04;;;;;;;14.18;7.28;;;;;;;18.14;73.79;100252.19;5114527;28;20044;-71
2021/08/19 05:39:32;;;;;;;12.45;6.50;;;;;;;18.38;73.21;100245.53;5095873;28;20124;-68
2021/08/19 05:42:00;;;;;;;10.57;6.05;;;;;;;18.77;71.06;100251.78;5114543;28;20070;-68
2021/08/19 05:44:29;;;;;;;10.20;6.03;;;;;;;18.73;70.80;100251.22;5114603;28;20492;-68
2021/08/19 05:46:58;;;;;;;11.15;6.50;;;;;;;19.06;69.73;100254.41;5114299;28;20112;-70
2021/08/19 05:49:26;;;;;;;11.23;6.28;;;;;;;19.70;66.78;100259.03;5114625;28;20109;-70
2021/08/19 05:51:54;;;;;;;13.63;7.05;;;;;;;20.23;65.75;100255.53;5116402;28;20472;-67
2021/08/19 05:54:22;;;;;;;10.20;5.93;;;;;;;20.62;63.22;100252.53;5095980;28;20056;-68
2021/08/19 05:56:51;;;;;;;12.68;6.60;;;;;;;21.22;61.35;100247.19;5113751;28;20044;-69
2021/08/19 05:59:19;;;;;;;12.65;6.20;;;;;;;21.78;59.77;100248.50;5114276;28;20047;-69
2021/08/19 06:01:47;;;;;;;12.18;6.53;;;;;;;22.17;57.49;100249.66;5113196;28;20055;-71
2021/08/19 06:04:18;;;;;;;11.55;6.28;;;;;;;22.49;56.38;100246.16;5113664;28;20042;-71
2021/08/19 06:06:46;;;;;;;11.23;5.95;;;;;;;22.95;55.06;100242.91;5113896;28;20040;-68
2021/08/19 06:09:15;;;;;;;10.88;6.20;;;;;;;23.21;54.34;100243.53;5113982;28;20458;-75
2021/08/19 06:11:43;;;;;;;12.60;6.55;;;;;;;23.59;52.86;100230.19;5113491;28;20126;-74
2021/08/19 06:14:11;;;;;;;11.95;6.35;;;;;;;23.61;52.71;100244.44;5113663;28;20047;-74
2021/08/19 06:16:39;;;;;;;9.93;5.70;;;;;;;23.72;52.67;100249.50;5113624;28;20381;-74
2021/08/19 06:19:08;;;;;;;12.35;7.13;;;;;;;23.58;52.73;100245.63;5114200;28;20049;-73
2021/08/19 06:21:37;;;;;;;13.52;6.38;;;;;;;23.54;52.79;100244.25;5113766;28;20477;-71
2021/08/19 06:24:06;;;;;;;11.70;6.90;;;;;;;23.55;53.24;100250.59;5113979;28;20043;-70
2021/08/19 06:26:34;;;;;;;11.85;6.65;;;;;;;23.63;52.82;100248.69;5113655;28;20039;-67
2021/08/19 06:29:02;;;;;;;12.93;6.30;;;;;;;24.11;52.03;100248.63;5113756;28;20047;-68
2021/08/19 06:31:30;;;;;;;10.23;6.10;;;;;;;24.49;50.92;100255.88;5113916;28;20051;-67
2021/08/19 06:33:59;;;;;;;12.40;6.32;;;;;;;24.50;51.51;100257.56;5113713;28;20043;-69
2021/08/19 06:36:27;;;;;;;12.63;5.93;;;;;;;24.65;50.53;100249.44;5113632;28;20040;-68
2021/08/19 06:38:57;;;;;;;13.00;6.60;;;;;;;24.92;48.82;100256.19;5113439;28;20101;-73
2021/08/19 06:41:27;;;;;;;9.73;5.85;;;;;;;25.12;49.09;100253.81;5095941;28;20043;-69
2021/08/19 06:43:55;;;;;;;9.85;6.13;;;;;;;25.30;48.49;100253.47;5113357;28;20048;-70
2021/08/19 06:46:23;;;;;;;9.77;5.80;;;;;;;25.15;48.74;100258.91;5113697;28;20130;-70
2021/08/19 06:48:52;;;;;;;9.45;5.40;;;;;;;25.47;47.25;100246.75;5113492;28;20104;-70
2021/08/19 06:51:20;;;;;;;11.25;6.18;;;;;;;25.31;48.43;100244.25;5113465;28;20396;-71
2021/08/19 06:53:48;;;;;;;11.60;5.80;;;;;;;25.46;48.12;100246.94;5113578;28;20621;-72
2021/08/19 06:56:17;;;;;;;10.70;5.53;;;;;;;25.10;48.84;100250.44;5113151;28;20043;-70
2021/08/19 06:58:46;;;;;;;10.20;5.80;;;;;;;25.20;47.70;100250.16;5113236;28;20044;-71
2021/08/19 07:01:14;;;;;;;10.93;6.20;;;;;;;24.10;50.44;100255.09;5113282;28;20043;-71
2021/08/19 07:03:42;;;;;;;11.50;5.72;;;;;;;23.84;52.45;100250.84;5113100;28;20050;-70
2021/08/19 07:06:11;;;;;;;10.98;5.13;;;;;;;23.62;51.92;100246.16;5113526;28;20078;-70
2021/08/19 07:08:40;;;;;;;8.65;4.80;;;;;;;23.49;52.97;100241.25;5112828;28;20517;-70
2021/08/19 07:11:09;;;;;;;8.23;4.80;;;;;;;23.40;52.59;100250.47;5113542;28;20477;-70
2021/08/19 07:13:39;;;;;;;8.73;4.55;;;;;;;23.63;52.20;100247.84;5114052;28;20043;-70
2021/08/19 07:16:07;;;;;;;9.15;5.13;;;;;;;23.53;52.56;100241.72;5117543;28;20044;-70
2021/08/19 07:18:36;;;;;;;10.40;5.20;;;;;;;23.80;50.75;100238.56;5117456;28;20071;-72
2021/08/19 07:21:04;;;;;;;8.38;5.28;;;;;;;23.60;51.65;100232.72;5117276;28;20040;-70
2021/08/19 07:23:33;;;;;;;8.20;4.80;;;;;;;23.33;52.21;100236.69;5117238;28;20047;-70
2021/08/19 07:26:01;;;;;;;9.07;5.03;;;;;;;23.30;52.14;100237.06;5117113;28;20055;-70
2021/08/19 07:28:29;;;;;;;12.10;4.78;;;;;;;23.30;53.14;100231.59;5117446;28;20048;-70
2021/08/19 07:30:59;;;;;;;8.73;5.35;;;;;;;23.33;52.25;100231.25;5116991;28;20484;-71
2021/08/19 07:33:27;;;;;;;8.52;4.50;;;;;;;23.31;53.43;100238.75;5117119;28;20036;-71
2021/08/19 07:35:55;;;;;;;8.57;4.80;;;;;;;23.39;52.99;100241.44;5116835;28;20066;-71
2021/08/19 07:38:23;;;;;;;8.02;4.60;;;;;;;23.24;53.43;100236.88;5116957;28;20059;-71
2021/08/19 07:40:51;;;;;;;9.70;4.22;;;;;;;23.35;52.90;100239.22;5117124;28;20430;-71
2021/08/19 07:43:20;;;;;;;7.50;4.40;;;;;;;23.57;52.85;100240.38;5117063;28;20040;-71
2021/08/19 07:45:48;;;;;;;9.35;4.15;;;;;;;23.77;52.36;100238.09;5116731;28;20495;-71
2021/08/19 07:48:18;;;;;;;8.02;3.90;;;;;;;23.84;51.92;100242.66;5116716;28;20043;-70
2021/08/19 07:50:46;;;;;;;6.53;3.75;;;;;;;23.47;51.81;100242.44;5116384;28;20070;-71
2021/08/19 07:53:16;;;;;;;7.35;4.03;;;;;;;23.32;51.94;100236.88;5116697;28;20062;-71
2021/08/19 07:55:46;;;;;;;9.32;4.40;;;;;;;23.28;52.11;100235.53;5116248;28;20051;-71
2021/08/19 07:58:15;;;;;;;7.00;4.05;;;;;;;23.01;52.78;100239.50;5116586;28;20050;-71
2021/08/19 08:00:43;;;;;;;6.53;3.65;;;;;;;22.93;54.47;100234.91;5116369;28;20145;-70
2021/08/19 08:03:11;;;;;;;8.32;4.00;;;;;;;22.83;54.45;100245.94;5116360;28;20063;-70
2021/08/19 08:05:41;;;;;;;7.72;4.00;;;;;;;22.58;54.69;100238.81;5116305;28;20069;-73
2021/08/19 08:08:11;;;;;;;6.43;3.47;;;;;;;22.74;54.81;100243.41;5116614;28;20040;-71
2021/08/19 08:10:41;;;;;;;8.05;4.30;;;;;;;22.90;53.92;100246.16;5116137;28;20113;-73
2021/08/19 08:13:12;;;;;;;8.05;4.07;;;;;;;23.21;52.68;100243.53;5116391;28;20043;-70
2021/08/19 08:15:41;;;;;;;7.15;3.78;;;;;;;23.53;53.16;100247.16;5116020;28;20035;-71
2021/08/19 08:18:14;;;;;;;5.88;3.50;;;;;;;23.60;51.85;100245.47;5116278;28;20096;-70
2021/08/19 08:20:45;;;;;;;6.93;3.58;;;;;;;23.45;51.51;100248.06;5116145;28;20101;-71
2021/08/19 08:23:17;;;;;;;5.93;3.90;;;;;;;23.43;52.14;100250.09;5116553;28;20127;-70
2021/08/19 08:25:46;;;;;;;6.30;3.72;;;;;;;23.61;52.43;100255.34;5114623;28;20557;-71
2021/08/19 08:28:19;;;;;;;7.35;3.58;;;;;;;23.81;52.30;100251.16;5116142;28;20119;-71
2021/08/19 08:30:51;;;;;;;7.10;3.85;;;;;;;24.11;51.55;100254.06;5116035;28;20046;-71
2021/08/19 08:33:20;;;;;;;6.68;3.40;;;;;;;23.99;52.38;100254.47;5116518;28;20051;-70
2021/08/19 08:35:51;;;;;;;6.00;3.10;;;;;;;23.98;49.81;100260.94;5115611;28;20043;-71
2021/08/19 08:38:21;;;;;;;6.57;2.90;;;;;;;23.59;51.38;100258.25;5115680;28;20063;-71
2021/08/19 08:40:51;;;;;;;7.13;3.38;;;;;;;23.54;51.38;100249.72;5116077;28;20464;-71
2021/08/19 08:43:21;;;;;;;7.10;2.92;;;;;;;23.62;52.09;100254.31;5115925;28;20484;-71
2021/08/19 08:45:51;;;;;;;4.80;2.83;;;;;;;23.35;51.12;100253.69;5115599;28;20050;-71
2021/08/19 08:48:22;;;;;;;4.82;2.80;;;;;;;23.34;51.69;100260.16;5115527;28;20071;-70
2021/08/19 08:50:56;;;;;;;4.28;2.35;;;;;;;23.04;52.13;100252.75;5097262;28;20058;-70
2021/08/19 08:53:24;;;;;;;4.85;2.60;;;;;;;22.96;51.90;100252.75;5115905;28;20118;-70
2021/08/19 08:55:53;;;;;;;5.72;2.55;;;;;;;22.70;51.35;100267.38;5115172;28;20658;-70
2021/08/19 08:58:21;;;;;;;4.22;2.30;;;;;;;22.68;51.64;100258.56;5115555;28;20044;-70
2021/08/19 09:00:50;;;;;;;5.93;2.67;;;;;;;22.83;51.96;100264.97;5115130;28;20044;-72
2021/08/19 09:03:21;;;;;;;4.88;2.53;;;;;;;22.97;52.50;100262.63;5097169;28;20138;-70
2021/08/19 09:05:50;;;;;;;3.63;2.08;;;;;;;23.26;49.87;100264.78;5115258;28;20040;-70
2021/08/19 09:08:22;;;;;;;3.67;2.08;;;;;;;23.16;49.60;100266.84;5115293;28;20048;-72
2021/08/19 09:10:52;;;;;;;3.45;2.20;;;;;;;23.29;49.86;100262.56;5115055;28;20039;-71
2021/08/19 09:13:23;;;;;;;5.70;2.50;;;;;;;23.00;50.67;100256.84;5115285;28;20043;-71
2021/08/19 09:15:53;;;;;;;4.35;2.20;;;;;;;23.13;50.73;100257.16;5115238;28;20088;-72
2021/08/19 09:18:32;;;;;;;4.05;1.92;;;;;;;23.07;50.36;100258.72;5115173;28;20039;-72
2021/08/19 09:21:01;;;;;;;5.75;2.85;;;;;;;23.21;50.96;100257.16;5115078;28;20074;-72
2021/08/19 09:23:30;;;;;;;5.70;2.40;;;;;;;23.30;50.28;100252.53;5115086;28;20039;-72
2021/08/19 09:26:03;;;;;;;6.47;2.80;;;;;;;23.29;51.59;100256.28;5114664;28;20040;-72
2021/08/19 09:28:31;;;;;;;4.05;2.60;;;;;;;23.33;50.68;100250.28;5115045;28;20083;-72
2021/08/19 09:31:05;;;;;;;6.03;3.10;;;;;;;23.55;50.50;100247.88;5114759;28;20532;-72
2021/08/19 09:33:37;;;;;;;6.43;3.05;;;;;;;23.56;50.52;100244.13;5115197;28;20048;-71
2021/08/19 09:36:07;;;;;;;5.75;2.75;;;;;;;23.54;50.32;100246.13;5114510;28;20126;-72
2021/08/19 09:38:38;;;;;;;6.75;2.90;;;;;;;23.43;51.45;100245.50;5114730;28;20063;-72
2021/08/19 09:41:11;;;;;;;6.57;3.28;;;;;;;23.46;51.77;100240.75;5114526;28;20050;-72
2021/08/19 09:43:44;;;;;;;6.15;3.00;;;;;;;23.34;51.07;100242.97;5114649;28;20480;-71
2021/08/19 09:46:14;;;;;;;5.93;2.97;;;;;;;23.28;51.91;100238.25;5097046;28;20055;-72
2021/08/19 09:48:43;;;;;;;7.00;3.08;;;;;;;23.25;52.57;100236.72;5114894;28;20048;-71
2021/08/19 09:51:13;;;;;;;6.07;3.20;;;;;;;23.24;52.16;100237.75;5114482;28;20391;-72
2021/08/19 09:53:47;;;;;;;6.10;3.60;;;;;;;23.14;52.93;100237.94;5114465;28;20108;-72
2021/08/19 09:56:27;;;;;;;5.78;3.15;;;;;;;23.24;52.20;100226.84;5114540;28;20088;-71
2021/08/19 09:58:55;;;;;;;6.63;2.95;;;;;;;23.19;49.92;100229.25;5114030;28;20040;-71
2021/08/19 10:01:24;;;;;;;5.07;3.10;;;;;;;23.20;50.49;100225.53;5114071;28;20118;-72
2021/08/19 10:03:53;;;;;;;5.00;2.75;;;;;;;23.26;49.48;100227.56;5113443;28;20444;-72
2021/08/19 10:06:22;;;;;;;4.53;2.60;;;;;;;23.35;49.20;100221.03;5114318;28;20089;-72
2021/08/19 10:08:51;;;;;;;5.63;2.92;;;;;;;23.42;49.70;100218.47;5113881;28;20044;-72
2021/08/19 10:11:20;;;;;;;5.53;3.10;;;;;;;23.36;49.85;100214.59;5114137;28;20071;-72
2021/08/19 10:13:48;;;;;;;4.75;2.80;;;;;;;23.27;48.88;100210.19;5113710;28;20433;-72
2021/08/19 10:16:17;;;;;;;5.18;2.88;;;;;;;23.26;49.78;100213.94;5113826;28;20043;-72
2021/08/19 10:18:47;;;;;;;6.30;3.38;;;;;;;23.35;50.32;100207.41;5114236;28;20036;-72
2021/08/19 10:21:19;;;;;;;5.10;3.08;;;;;;;23.55;48.17;100207.88;5114247;28;20093;-72
2021/08/19 10:24:04;;;;;;;5.05;2.75;;;;;;;23.54;48.86;100205.31;5113812;28;20040;-72
2021/08/19 10:26:32;;;;;;;5.10;2.80;;;;;;;23.57;49.14;100210.41;5113944;28;20047;-72
2021/08/19 10:29:02;;;;;;;7.18;3.83;;;;;;;23.81;49.30;100204.03;5113633;28;20290;-72
2021/08/19 10:31:54;;;;;;;5.97;3.33;;;;;;;24.05;49.01;100203.88;5113832;28;20056;-71
2021/08/19 10:34:54;;;;;;;4.85;2.97;;;;;;;24.21;47.85;100202.91;5094374;28;20044;-70
2021/08/19 10:37:22;;;;;;;4.45;2.58;;;;;;;24.30;45.95;100190.91;5113574;28;20067;-71
2021/08/19 10:39:52;;;;;;;5.43;2.78;;;;;;;24.26;45.44;100197.75;5113776;28;20089;-71
2021/08/19 10:42:31;;;;;;;4.95;2.20;;;;;;;24.13;42.52;100205.72;5113637;28;20558;-71
2021/08/19 10:44:59;;;;;;;3.38;2.08;;;;;;;24.13;42.78;100200.25;5113559;28;20070;-71
2021/08/19 10:47:36;;;;;;;3.63;2.13;;;;;;;24.19;43.49;100194.91;5113246;28;20126;-71
2021/08/19 10:50:27;;;;;;;4.90;2.40;;;;;;;24.33;43.16;100196.06;5113038;28;20036;-71
2021/08/19 10:52:58;;;;;;;5.05;2.45;;;;;;;24.41;42.53;100193.22;5113159;28;20397;-72
2021/08/19 10:55:39;;;;;;;5.65;2.15;;;;;;;24.11;39.71;100189.50;5113548;28;20586;-72
2021/08/19 10:58:24;;;;;;;3.85;2.03;;;;;;;24.22;40.88;100189.13;5095357;28;20051;-71
2021/08/19 11:00:52;;;;;;;5.35;1.90;;;;;;;24.21;40.14;100183.81;5113448;28;20043;-72
2021/08/19 11:03:43;;;;;;;4.63;2.25;;;;;;;24.21;40.41;100181.09;5113859;28;20089;-71
2021/08/19 11:06:14;;;;;;;3.50;1.90;;;;;;;24.19;39.40;100175.00;5113011;28;20043;-71
2021/08/19 11:08:45;;;;;;;3.50;2.03;;;;;;;24.25;38.45;100174.28;5113604;28;20071;-71
2021/08/19 11:11:29;;;;;;;3.28;1.70;;;;;;;24.06;37.03;100177.47;5113184;28;20044;-71
2021/08/19 11:14:17;;;;;;;3.33;1.70;;;;;;;23.89;37.46;100172.13;5113201;28;20093;-71
2021/08/19 11:16:57;;;;;;;4.57;2.15;;;;;;;23.87;37.53;100179.66;5113386;28;20051;-71
2021/08/19 11:19:26;;;;;;;4.20;2.03;;;;;;;23.84;37.93;100176.44;5113261;28;20046;-72
2021/08/19 11:21:56;;;;;;;3.03;1.73;;;;;;;24.02;37.65;100176.13;5113025;28;20035;-72
2021/08/19 11:24:27;;;;;;;3.47;1.80;;;;;;;24.16;38.46;100172.63;5113293;28;20035;-71
2021/08/19 11:27:07;;;;;;;3.83;2.03;;;;;;;24.30;36.80;100171.81;5112853;28;20119;-72
2021/08/19 11:29:37;;;;;;;3.53;1.88;;;;;;;24.16;36.11;100173.47;5113196;28;20047;-71
2021/08/19 11:32:09;;;;;;;3.17;1.63;;;;;;;24.24;36.85;100165.25;5112859;28;20035;-71
2021/08/19 11:34:38;;;;;;;4.97;1.92;;;;;;;24.35;36.94;100161.28;5113031;28;20040;-71